sensor_id;sensor_type;location;lat;lon;timestamp;P1;durP1;ratioP1;P2;durP2;ratioP2
14052;SDS011;7101;51.600;7.310;2022-11-15T00:00:50;9.77;;;7.32;;
14052;SDS011;7101;51.600;7.310;2022-11-15T00:03:19;8.77;;;7.18;;
14052;SDS011;7101;51.600;7.310;2022-11-15T00:05:48;8.88;;;7.13;;
14052;SDS011;7101;51.600;7.310;2022-11-15T00:08:15;8.95;;;6.40;;
14052;SDS011;7101;51.600;7.310;2022-11-15T00:10:42;8.05;;;6.93;;
14052;SDS011;7101;51.600;7.310;2022-11-15T00:13:11;9.70;;;6.90;;
14052;SDS011;7101;51.600;7.310;2022-11-15T00:15:39;8.85;;;6.80;;
14052;SDS011;7101;51.600;7.310;2022-11-15T00:18:10;9.75;;;7.43;;
14052;SDS011;7101;51.600;7.310;2022-11-15T00:20:40;10.07;;;6.72;;
14052;SDS011;7101;51.600;7.310;2022-11-15T00:23:07;8.18;;;6.55;;
14052;SDS011;7101;51.600;7.310;2022-11-15T00:25:35;10.23;;;6.85;;
14052;SDS011;7101;51.600;7.310;2022-11-15T00:28:02;9.18;;;6.55;;
14052;SDS011;7101;51.600;7.310;2022-11-15T00:30:30;7.82;;;6.57;;
14052;SDS011;7101;51.600;7.310;2022-11-15T00:33:00;9.38;;;6.40;;
14052;SDS011;7101;51.600;7.310;2022-11-15T00:35:28;10.18;;;6.82;;
14052;SDS011;7101;51.600;7.310;2022-11-15T00:37:57;11.05;;;6.55;;
14052;SDS011;7101;51.600;7.310;2022-11-15T00:40:23;9.63;;;6.07;;
14052;SDS011;7101;51.600;7.310;2022-11-15T00:42:50;8.77;;;6.40;;
14052;SDS011;7101;51.600;7.310;2022-11-15T00:45:17;10.07;;;6.35;;
14052;SDS011;7101;51.600;7.310;2022-11-15T00:47:46;9.13;;;6.53;;
14052;SDS011;7101;51.600;7.310;2022-11-15T00:50:13;7.85;;;5.90;;
14052;SDS011;7101;51.600;7.310;2022-11-15T00:52:40;8.65;;;6.25;;
14052;SDS011;7101;51.600;7.310;2022-11-15T00:55:08;8.25;;;6.68;;
14052;SDS011;7101;51.600;7.310;2022-11-15T00:57:39;8.32;;;5.97;;
14052;SDS011;7101;51.600;7.310;2022-11-15T01:00:06;8.52;;;6.00;;
14052;SDS011;7101;51.600;7.310;2022-11-15T01:02:33;9.30;;;5.88;;
14052;SDS011;7101;51.600;7.310;2022-11-15T01:05:02;11.75;;;6.40;;
14052;SDS011;7101;51.600;7.310;2022-11-15T01:07:29;7.65;;;5.43;;
14052;SDS011;7101;51.600;7.310;2022-11-15T01:09:57;11.40;;;6.18;;
14052;SDS011;7101;51.600;7.310;2022-11-15T01:12:24;6.70;;;5.63;;
14052;SDS011;7101;51.600;7.310;2022-11-15T01:14:51;10.48;;;6.35;;
14052;SDS011;7101;51.600;7.310;2022-11-15T01:17:20;11.63;;;5.82;;
14052;SDS011;7101;51.600;7.310;2022-11-15T01:19:47;8.05;;;5.90;;
14052;SDS011;7101;51.600;7.310;2022-11-15T01:22:16;9.52;;;6.05;;
14052;SDS011;7101;51.600;7.310;2022-11-15T01:24:43;8.52;;;5.72;;
14052;SDS011;7101;51.600;7.310;2022-11-15T01:27:11;10.43;;;5.88;;
14052;SDS011;7101;51.600;7.310;2022-11-15T01:29:38;8.38;;;5.80;;
14052;SDS011;7101;51.600;7.310;2022-11-15T01:32:04;7.60;;;5.38;;
14052;SDS011;7101;51.600;7.310;2022-11-15T01:34:34;8.57;;;5.50;;
14052;SDS011;7101;51.600;7.310;2022-11-15T01:37:01;9.93;;;5.28;;
14052;SDS011;7101;51.600;7.310;2022-11-15T01:39:30;10.07;;;5.40;;
14052;SDS011;7101;51.600;7.310;2022-11-15T01:41:57;7.70;;;5.30;;
14052;SDS011;7101;51.600;7.310;2022-11-15T01:44:40;8.55;;;5.72;;
14052;SDS011;7101;51.600;7.310;2022-11-15T01:47:11;7.57;;;5.60;;
14052;SDS011;7101;51.600;7.310;2022-11-15T01:49:43;8.63;;;5.32;;
14052;SDS011;7101;51.600;7.310;2022-11-15T01:52:17;8.13;;;6.00;;
14052;SDS011;7101;51.600;7.310;2022-11-15T01:54:48;8.40;;;5.40;;
14052;SDS011;7101;51.600;7.310;2022-11-15T01:57:19;8.23;;;5.85;;
14052;SDS011;7101;51.600;7.310;2022-11-15T01:59:46;8.50;;;6.18;;
14052;SDS011;7101;51.600;7.310;2022-11-15T02:02:14;12.07;;;5.45;;
14052;SDS011;7101;51.600;7.310;2022-11-15T02:04:41;6.28;;;5.40;;
14052;SDS011;7101;51.600;7.310;2022-11-15T02:07:09;7.80;;;5.93;;
14052;SDS011;7101;51.600;7.310;2022-11-15T02:09:38;6.63;;;5.20;;
14052;SDS011;7101;51.600;7.310;2022-11-15T02:12:08;10.52;;;5.72;;
14052;SDS011;7101;51.600;7.310;2022-11-15T02:14:37;9.57;;;5.72;;
14052;SDS011;7101;51.600;7.310;2022-11-15T02:17:09;7.13;;;5.70;;
14052;SDS011;7101;51.600;7.310;2022-11-15T02:20:00;9.02;;;5.40;;
14052;SDS011;7101;51.600;7.310;2022-11-15T02:22:46;8.93;;;5.18;;
14052;SDS011;7101;51.600;7.310;2022-11-15T02:25:37;6.90;;;5.43;;
14052;SDS011;7101;51.600;7.310;2022-11-15T02:31:06;10.52;;;5.35;;
14052;SDS011;7101;51.600;7.310;2022-11-15T02:33:39;7.85;;;5.75;;
14052;SDS011;7101;51.600;7.310;2022-11-15T02:36:12;6.30;;;5.05;;
14052;SDS011;7101;51.600;7.310;2022-11-15T02:38:46;9.38;;;5.30;;
14052;SDS011;7101;51.600;7.310;2022-11-15T02:41:22;11.45;;;5.85;;
14052;SDS011;7101;51.600;7.310;2022-11-15T02:43:56;8.57;;;6.10;;
14052;SDS011;7101;51.600;7.310;2022-11-15T02:46:31;7.45;;;5.25;;
14052;SDS011;7101;51.600;7.310;2022-11-15T02:49:22;8.23;;;5.57;;
14052;SDS011;7101;51.600;7.310;2022-11-15T02:51:50;8.48;;;5.25;;
14052;SDS011;7101;51.600;7.310;2022-11-15T02:54:20;7.72;;;4.80;;
14052;SDS011;7101;51.600;7.310;2022-11-15T02:56:49;7.50;;;5.32;;
14052;SDS011;7101;51.600;7.310;2022-11-15T02:59:23;6.60;;;5.22;;
14052;SDS011;7101;51.600;7.310;2022-11-15T03:02:34;8.57;;;4.90;;
14052;SDS011;7101;51.600;7.310;2022-11-15T03:05:13;8.00;;;5.07;;
14052;SDS011;7101;51.600;7.310;2022-11-15T03:07:47;9.80;;;5.00;;
14052;SDS011;7101;51.600;7.310;2022-11-15T03:10:21;7.65;;;5.20;;
14052;SDS011;7101;51.600;7.310;2022-11-15T03:12:53;6.95;;;5.50;;
14052;SDS011;7101;51.600;7.310;2022-11-15T03:15:24;9.30;;;5.53;;
14052;SDS011;7101;51.600;7.310;2022-11-15T03:17:58;9.48;;;5.10;;
14052;SDS011;7101;51.600;7.310;2022-11-15T03:20:28;8.93;;;5.90;;
14052;SDS011;7101;51.600;7.310;2022-11-15T03:23:03;10.20;;;5.55;;
14052;SDS011;7101;51.600;7.310;2022-11-15T03:25:33;8.27;;;6.10;;
14052;SDS011;7101;51.600;7.310;2022-11-15T03:28:05;10.30;;;5.72;;
14052;SDS011;7101;51.600;7.310;2022-11-15T03:30:38;8.85;;;6.07;;
14052;SDS011;7101;51.600;7.310;2022-11-15T03:33:09;10.43;;;6.10;;
14052;SDS011;7101;51.600;7.310;2022-11-15T03:35:37;8.88;;;5.80;;
14052;SDS011;7101;51.600;7.310;2022-11-15T03:38:12;9.35;;;6.00;;
14052;SDS011;7101;51.600;7.310;2022-11-15T03:40:49;7.90;;;6.35;;
14052;SDS011;7101;51.600;7.310;2022-11-15T03:43:24;8.15;;;5.75;;
14052;SDS011;7101;51.600;7.310;2022-11-15T03:46:00;9.05;;;5.97;;
14052;SDS011;7101;51.600;7.310;2022-11-15T03:48:33;9.13;;;6.32;;
14052;SDS011;7101;51.600;7.310;2022-11-15T03:51:06;8.48;;;6.13;;
14052;SDS011;7101;51.600;7.310;2022-11-15T03:53:36;8.73;;;5.75;;
14052;SDS011;7101;51.600;7.310;2022-11-15T03:56:03;8.25;;;6.40;;
14052;SDS011;7101;51.600;7.310;2022-11-15T03:58:31;9.52;;;5.97;;
14052;SDS011;7101;51.600;7.310;2022-11-15T04:00:59;7.32;;;5.65;;
14052;SDS011;7101;51.600;7.310;2022-11-15T04:03:27;8.55;;;6.05;;
14052;SDS011;7101;51.600;7.310;2022-11-15T04:05:57;8.50;;;6.05;;
14052;SDS011;7101;51.600;7.310;2022-11-15T04:08:24;9.95;;;6.00;;
14052;SDS011;7101;51.600;7.310;2022-11-15T04:10:52;8.32;;;5.90;;
14052;SDS011;7101;51.600;7.310;2022-11-15T04:13:19;7.20;;;5.53;;
14052;SDS011;7101;51.600;7.310;2022-11-15T04:15:49;6.97;;;5.57;;
14052;SDS011;7101;51.600;7.310;2022-11-15T04:18:19;8.38;;;5.82;;
14052;SDS011;7101;51.600;7.310;2022-11-15T04:20:47;8.73;;;5.68;;
14052;SDS011;7101;51.600;7.310;2022-11-15T04:23:32;7.35;;;5.30;;
14052;SDS011;7101;51.600;7.310;2022-11-15T04:26:17;7.45;;;5.43;;
14052;SDS011;7101;51.600;7.310;2022-11-15T04:28:46;7.68;;;5.47;;
14052;SDS011;7101;51.600;7.310;2022-11-15T04:31:27;9.13;;;5.53;;
14052;SDS011;7101;51.600;7.310;2022-11-15T04:33:54;7.50;;;5.47;;
14052;SDS011;7101;51.600;7.310;2022-11-15T04:36:29;11.18;;;6.03;;
14052;SDS011;7101;51.600;7.310;2022-11-15T04:39:14;7.13;;;5.28;;
14052;SDS011;7101;51.600;7.310;2022-11-15T04:41:41;8.40;;;6.03;;
14052;SDS011;7101;51.600;7.310;2022-11-15T04:44:10;6.75;;;5.60;;
14052;SDS011;7101;51.600;7.310;2022-11-15T04:46:41;7.50;;;5.15;;
14052;SDS011;7101;51.600;7.310;2022-11-15T04:49:09;7.45;;;5.72;;
14052;SDS011;7101;51.600;7.310;2022-11-15T04:51:40;8.95;;;5.88;;
14052;SDS011;7101;51.600;7.310;2022-11-15T04:54:09;8.40;;;5.95;;
14052;SDS011;7101;51.600;7.310;2022-11-15T04:56:37;7.03;;;5.00;;
14052;SDS011;7101;51.600;7.310;2022-11-15T04:59:04;7.63;;;5.45;;
14052;SDS011;7101;51.600;7.310;2022-11-15T05:01:31;7.60;;;5.68;;
14052;SDS011;7101;51.600;7.310;2022-11-15T05:04:01;6.95;;;5.50;;
14052;SDS011;7101;51.600;7.310;2022-11-15T05:06:48;7.25;;;5.53;;
14052;SDS011;7101;51.600;7.310;2022-11-15T05:09:16;6.63;;;5.20;;
14052;SDS011;7101;51.600;7.310;2022-11-15T05:11:43;9.32;;;5.80;;
14052;SDS011;7101;51.600;7.310;2022-11-15T05:14:14;9.45;;;5.72;;
14052;SDS011;7101;51.600;7.310;2022-11-15T05:16:43;9.30;;;5.38;;
14052;SDS011;7101;51.600;7.310;2022-11-15T05:19:11;8.27;;;6.18;;
14052;SDS011;7101;51.600;7.310;2022-11-15T05:21:38;6.80;;;5.20;;
14052;SDS011;7101;51.600;7.310;2022-11-15T05:24:12;9.10;;;6.00;;
14052;SDS011;7101;51.600;7.310;2022-11-15T05:26:39;8.35;;;6.18;;
14052;SDS011;7101;51.600;7.310;2022-11-15T05:29:09;7.43;;;5.90;;
14052;SDS011;7101;51.600;7.310;2022-11-15T05:31:38;8.20;;;5.35;;
14052;SDS011;7101;51.600;7.310;2022-11-15T05:34:07;6.57;;;5.38;;
14052;SDS011;7101;51.600;7.310;2022-11-15T05:36:35;6.13;;;5.53;;
14052;SDS011;7101;51.600;7.310;2022-11-15T05:39:04;9.80;;;5.80;;
14052;SDS011;7101;51.600;7.310;2022-11-15T05:41:44;8.70;;;5.97;;
14052;SDS011;7101;51.600;7.310;2022-11-15T05:44:17;7.72;;;5.82;;
14052;SDS011;7101;51.600;7.310;2022-11-15T05:46:51;6.75;;;5.72;;
14052;SDS011;7101;51.600;7.310;2022-11-15T05:49:27;6.80;;;5.63;;
14052;SDS011;7101;51.600;7.310;2022-11-15T05:51:58;6.80;;;5.50;;
14052;SDS011;7101;51.600;7.310;2022-11-15T05:54:25;5.97;;;5.38;;
14052;SDS011;7101;51.600;7.310;2022-11-15T05:56:54;6.88;;;4.90;;
14052;SDS011;7101;51.600;7.310;2022-11-15T05:59:25;6.47;;;5.35;;
14052;SDS011;7101;51.600;7.310;2022-11-15T06:01:54;6.95;;;5.45;;
14052;SDS011;7101;51.600;7.310;2022-11-15T06:04:21;8.52;;;5.45;;
14052;SDS011;7101;51.600;7.310;2022-11-15T06:06:49;6.20;;;5.50;;
14052;SDS011;7101;51.600;7.310;2022-11-15T06:09:18;7.15;;;5.78;;
14052;SDS011;7101;51.600;7.310;2022-11-15T06:11:45;7.00;;;5.90;;
14052;SDS011;7101;51.600;7.310;2022-11-15T06:14:14;7.20;;;6.22;;
14052;SDS011;7101;51.600;7.310;2022-11-15T06:16:41;7.70;;;6.32;;
14052;SDS011;7101;51.600;7.310;2022-11-15T06:19:09;8.18;;;6.10;;
14052;SDS011;7101;51.600;7.310;2022-11-15T06:21:36;10.05;;;5.68;;
14052;SDS011;7101;51.600;7.310;2022-11-15T06:24:04;7.63;;;5.85;;
14052;SDS011;7101;51.600;7.310;2022-11-15T06:26:34;7.90;;;5.97;;
14052;SDS011;7101;51.600;7.310;2022-11-15T06:29:01;7.43;;;6.63;;
14052;SDS011;7101;51.600;7.310;2022-11-15T06:31:31;7.65;;;5.88;;
14052;SDS011;7101;51.600;7.310;2022-11-15T06:33:59;8.98;;;6.10;;
14052;SDS011;7101;51.600;7.310;2022-11-15T06:36:26;7.28;;;5.60;;
14052;SDS011;7101;51.600;7.310;2022-11-15T06:38:55;6.18;;;5.47;;
14052;SDS011;7101;51.600;7.310;2022-11-15T06:41:23;6.82;;;5.57;;
14052;SDS011;7101;51.600;7.310;2022-11-15T06:43:50;7.75;;;5.35;;
14052;SDS011;7101;51.600;7.310;2022-11-15T06:46:17;7.43;;;5.45;;
14052;SDS011;7101;51.600;7.310;2022-11-15T06:48:47;7.70;;;5.88;;
14052;SDS011;7101;51.600;7.310;2022-11-15T06:51:16;6.75;;;5.10;;
14052;SDS011;7101;51.600;7.310;2022-11-15T06:53:43;5.85;;;5.25;;
14052;SDS011;7101;51.600;7.310;2022-11-15T06:56:10;7.65;;;5.53;;
14052;SDS011;7101;51.600;7.310;2022-11-15T06:58:37;6.70;;;5.45;;
14052;SDS011;7101;51.600;7.310;2022-11-15T07:01:06;7.00;;;5.40;;
14052;SDS011;7101;51.600;7.310;2022-11-15T07:03:34;5.57;;;4.95;;
14052;SDS011;7101;51.600;7.310;2022-11-15T07:06:06;4.72;;;4.32;;
14052;SDS011;7101;51.600;7.310;2022-11-15T07:08:34;5.22;;;4.18;;
14052;SDS011;7101;51.600;7.310;2022-11-15T07:11:06;7.07;;;4.15;;
14052;SDS011;7101;51.600;7.310;2022-11-15T07:13:35;5.32;;;4.28;;
14052;SDS011;7101;51.600;7.310;2022-11-15T07:16:02;5.47;;;3.85;;
14052;SDS011;7101;51.600;7.310;2022-11-15T07:18:31;3.70;;;3.22;;
14052;SDS011;7101;51.600;7.310;2022-11-15T07:21:01;5.63;;;3.60;;
14052;SDS011;7101;51.600;7.310;2022-11-15T07:23:30;4.13;;;3.53;;
14052;SDS011;7101;51.600;7.310;2022-11-15T07:25:57;3.75;;;3.30;;
14052;SDS011;7101;51.600;7.310;2022-11-15T07:28:25;3.72;;;2.92;;
14052;SDS011;7101;51.600;7.310;2022-11-15T07:30:52;4.82;;;3.30;;
14052;SDS011;7101;51.600;7.310;2022-11-15T07:33:33;5.13;;;3.22;;
14052;SDS011;7101;51.600;7.310;2022-11-15T07:36:00;3.58;;;2.60;;
14052;SDS011;7101;51.600;7.310;2022-11-15T07:38:30;3.05;;;2.60;;
14052;SDS011;7101;51.600;7.310;2022-11-15T07:40:57;3.17;;;2.38;;
14052;SDS011;7101;51.600;7.310;2022-11-15T07:43:26;3.20;;;2.53;;
14052;SDS011;7101;51.600;7.310;2022-11-15T07:45:54;2.92;;;2.30;;
14052;SDS011;7101;51.600;7.310;2022-11-15T07:48:22;3.08;;;2.25;;
14052;SDS011;7101;51.600;7.310;2022-11-15T07:50:49;4.45;;;2.30;;
14052;SDS011;7101;51.600;7.310;2022-11-15T07:53:17;2.42;;;2.15;;
14052;SDS011;7101;51.600;7.310;2022-11-15T07:55:47;2.55;;;2.13;;
14052;SDS011;7101;51.600;7.310;2022-11-15T07:58:14;4.00;;;2.08;;
14052;SDS011;7101;51.600;7.310;2022-11-15T08:00:41;2.40;;;1.90;;
14052;SDS011;7101;51.600;7.310;2022-11-15T08:03:08;3.40;;;2.40;;
14052;SDS011;7101;51.600;7.310;2022-11-15T08:05:37;3.08;;;2.40;;
14052;SDS011;7101;51.600;7.310;2022-11-15T08:08:05;3.00;;;2.03;;
14052;SDS011;7101;51.600;7.310;2022-11-15T08:10:33;2.70;;;2.20;;
14052;SDS011;7101;51.600;7.310;2022-11-15T08:13:03;1.85;;;1.70;;
14052;SDS011;7101;51.600;7.310;2022-11-15T08:15:31;2.45;;;1.65;;
14052;SDS011;7101;51.600;7.310;2022-11-15T08:17:59;2.15;;;1.75;;
14052;SDS011;7101;51.600;7.310;2022-11-15T08:20:29;2.40;;;1.77;;
14052;SDS011;7101;51.600;7.310;2022-11-15T08:22:56;2.67;;;2.15;;
14052;SDS011;7101;51.600;7.310;2022-11-15T08:25:23;2.70;;;2.10;;
14052;SDS011;7101;51.600;7.310;2022-11-15T08:27:52;3.88;;;2.40;;
14052;SDS011;7101;51.600;7.310;2022-11-15T08:30:21;3.75;;;2.33;;
14052;SDS011;7101;51.600;7.310;2022-11-15T08:32:49;2.67;;;1.98;;
14052;SDS011;7101;51.600;7.310;2022-11-15T08:35:17;2.78;;;1.90;;
14052;SDS011;7101;51.600;7.310;2022-11-15T08:37:45;3.78;;;2.05;;
14052;SDS011;7101;51.600;7.310;2022-11-15T08:40:13;3.95;;;2.10;;
14052;SDS011;7101;51.600;7.310;2022-11-15T08:42:40;2.85;;;1.80;;
14052;SDS011;7101;51.600;7.310;2022-11-15T08:45:09;3.47;;;2.00;;
14052;SDS011;7101;51.600;7.310;2022-11-15T08:47:38;3.53;;;2.25;;
14052;SDS011;7101;51.600;7.310;2022-11-15T08:50:06;4.90;;;1.80;;
14052;SDS011;7101;51.600;7.310;2022-11-15T08:52:34;3.53;;;1.80;;
14052;SDS011;7101;51.600;7.310;2022-11-15T08:55:01;3.22;;;1.88;;
14052;SDS011;7101;51.600;7.310;2022-11-15T08:57:28;1.83;;;1.63;;
14052;SDS011;7101;51.600;7.310;2022-11-15T08:59:56;3.22;;;1.88;;
14052;SDS011;7101;51.600;7.310;2022-11-15T09:02:23;2.00;;;1.80;;
14052;SDS011;7101;51.600;7.310;2022-11-15T09:04:51;3.72;;;1.60;;
14052;SDS011;7101;51.600;7.310;2022-11-15T09:07:18;2.60;;;1.98;;
14052;SDS011;7101;51.600;7.310;2022-11-15T09:09:46;3.22;;;1.90;;
14052;SDS011;7101;51.600;7.310;2022-11-15T09:12:12;2.60;;;2.10;;
14052;SDS011;7101;51.600;7.310;2022-11-15T09:14:41;4.07;;;2.00;;
14052;SDS011;7101;51.600;7.310;2022-11-15T09:17:09;2.40;;;1.90;;
14052;SDS011;7101;51.600;7.310;2022-11-15T09:19:36;2.95;;;1.88;;
14052;SDS011;7101;51.600;7.310;2022-11-15T09:22:07;3.10;;;1.67;;
14052;SDS011;7101;51.600;7.310;2022-11-15T09:24:36;2.15;;;1.60;;
14052;SDS011;7101;51.600;7.310;2022-11-15T09:27:03;2.25;;;1.73;;
14052;SDS011;7101;51.600;7.310;2022-11-15T09:29:31;2.47;;;1.80;;
14052;SDS011;7101;51.600;7.310;2022-11-15T09:32:00;2.20;;;1.52;;
14052;SDS011;7101;51.600;7.310;2022-11-15T09:34:27;3.53;;;1.80;;
14052;SDS011;7101;51.600;7.310;2022-11-15T09:36:54;2.50;;;1.60;;
14052;SDS011;7101;51.600;7.310;2022-11-15T09:39:22;2.90;;;1.88;;
14052;SDS011;7101;51.600;7.310;2022-11-15T09:41:58;2.72;;;1.55;;
14052;SDS011;7101;51.600;7.310;2022-11-15T09:44:39;3.22;;;1.60;;
14052;SDS011;7101;51.600;7.310;2022-11-15T09:50:14;4.03;;;1.70;;
14052;SDS011;7101;51.600;7.310;2022-11-15T09:52:44;1.60;;;1.33;;
14052;SDS011;7101;51.600;7.310;2022-11-15T09:55:14;2.13;;;1.40;;
14052;SDS011;7101;51.600;7.310;2022-11-15T09:57:48;1.70;;;1.45;;
14052;SDS011;7101;51.600;7.310;2022-11-15T10:00:21;2.03;;;1.45;;
14052;SDS011;7101;51.600;7.310;2022-11-15T10:03:06;2.33;;;1.30;;
14052;SDS011;7101;51.600;7.310;2022-11-15T10:05:37;2.15;;;1.40;;
14052;SDS011;7101;51.600;7.310;2022-11-15T10:08:06;3.10;;;1.30;;
14052;SDS011;7101;51.600;7.310;2022-11-15T10:10:55;1.90;;;1.20;;
14052;SDS011;7101;51.600;7.310;2022-11-15T10:13:23;3.70;;;1.30;;
14052;SDS011;7101;51.600;7.310;2022-11-15T10:15:53;2.50;;;1.13;;
14052;SDS011;7101;51.600;7.310;2022-11-15T10:18:24;4.90;;;1.42;;
14052;SDS011;7101;51.600;7.310;2022-11-15T10:21:02;1.67;;;1.15;;
14052;SDS011;7101;51.600;7.310;2022-11-15T10:23:40;2.67;;;1.10;;
14052;SDS011;7101;51.600;7.310;2022-11-15T10:26:09;3.05;;;1.40;;
14052;SDS011;7101;51.600;7.310;2022-11-15T10:28:39;2.00;;;1.08;;
14052;SDS011;7101;51.600;7.310;2022-11-15T10:31:20;3.42;;;1.15;;
14052;SDS011;7101;51.600;7.310;2022-11-15T10:33:50;3.00;;;1.25;;
14052;SDS011;7101;51.600;7.310;2022-11-15T10:36:19;2.75;;;1.50;;
14052;SDS011;7101;51.600;7.310;2022-11-15T10:38:57;2.22;;;1.10;;
14052;SDS011;7101;51.600;7.310;2022-11-15T10:41:34;1.50;;;1.10;;
14052;SDS011;7101;51.600;7.310;2022-11-15T10:44:08;2.75;;;1.00;;
14052;SDS011;7101;51.600;7.310;2022-11-15T10:46:39;6.35;;;1.15;;
14052;SDS011;7101;51.600;7.310;2022-11-15T10:49:12;2.50;;;1.00;;
14052;SDS011;7101;51.600;7.310;2022-11-15T10:51:41;2.17;;;1.13;;
14052;SDS011;7101;51.600;7.310;2022-11-15T10:54:13;1.65;;;1.10;;
14052;SDS011;7101;51.600;7.310;2022-11-15T10:56:49;1.42;;;1.00;;
14052;SDS011;7101;51.600;7.310;2022-11-15T10:59:20;4.50;;;1.10;;
14052;SDS011;7101;51.600;7.310;2022-11-15T11:01:51;2.95;;;1.10;;
14052;SDS011;7101;51.600;7.310;2022-11-15T11:04:19;2.65;;;1.33;;
14052;SDS011;7101;51.600;7.310;2022-11-15T11:06:50;2.08;;;1.20;;
14052;SDS011;7101;51.600;7.310;2022-11-15T11:09:23;1.50;;;1.27;;
14052;SDS011;7101;51.600;7.310;2022-11-15T11:12:02;1.73;;;1.10;;
14052;SDS011;7101;51.600;7.310;2022-11-15T11:14:31;2.53;;;1.27;;
14052;SDS011;7101;51.600;7.310;2022-11-15T11:17:02;4.55;;;1.35;;
14052;SDS011;7101;51.600;7.310;2022-11-15T11:19:37;5.53;;;1.50;;
14052;SDS011;7101;51.600;7.310;2022-11-15T11:22:17;3.53;;;1.70;;
14052;SDS011;7101;51.600;7.310;2022-11-15T11:24:53;1.90;;;1.40;;
14052;SDS011;7101;51.600;7.310;2022-11-15T11:27:34;2.38;;;1.10;;
14052;SDS011;7101;51.600;7.310;2022-11-15T11:30:09;2.67;;;0.95;;
14052;SDS011;7101;51.600;7.310;2022-11-15T11:32:49;2.60;;;1.38;;
14052;SDS011;7101;51.600;7.310;2022-11-15T11:35:24;4.10;;;1.60;;
14052;SDS011;7101;51.600;7.310;2022-11-15T11:38:00;3.80;;;1.23;;
14052;SDS011;7101;51.600;7.310;2022-11-15T11:40:44;4.55;;;1.48;;
14052;SDS011;7101;51.600;7.310;2022-11-15T11:43:24;1.40;;;1.10;;
14052;SDS011;7101;51.600;7.310;2022-11-15T11:46:02;2.00;;;1.20;;
14052;SDS011;7101;51.600;7.310;2022-11-15T11:48:43;3.38;;;1.40;;
14052;SDS011;7101;51.600;7.310;2022-11-15T11:51:13;2.85;;;1.40;;
14052;SDS011;7101;51.600;7.310;2022-11-15T11:53:47;2.00;;;1.20;;
14052;SDS011;7101;51.600;7.310;2022-11-15T11:56:21;2.28;;;1.00;;
14052;SDS011;7101;51.600;7.310;2022-11-15T11:58:52;2.45;;;1.00;;
14052;SDS011;7101;51.600;7.310;2022-11-15T12:01:22;3.10;;;1.20;;
14052;SDS011;7101;51.600;7.310;2022-11-15T12:03:52;2.05;;;1.40;;
14052;SDS011;7101;51.600;7.310;2022-11-15T12:06:36;2.13;;;1.10;;
14052;SDS011;7101;51.600;7.310;2022-11-15T12:09:11;1.10;;;1.00;;
14052;SDS011;7101;51.600;7.310;2022-11-15T12:11:43;2.38;;;1.05;;
14052;SDS011;7101;51.600;7.310;2022-11-15T12:14:27;2.63;;;1.05;;
14052;SDS011;7101;51.600;7.310;2022-11-15T12:16:58;1.60;;;0.80;;
14052;SDS011;7101;51.600;7.310;2022-11-15T12:19:26;1.65;;;1.15;;
14052;SDS011;7101;51.600;7.310;2022-11-15T12:21:55;1.50;;;0.90;;
14052;SDS011;7101;51.600;7.310;2022-11-15T12:24:28;2.15;;;1.10;;
14052;SDS011;7101;51.600;7.310;2022-11-15T12:27:00;4.88;;;1.15;;
14052;SDS011;7101;51.600;7.310;2022-11-15T12:29:35;2.97;;;1.08;;
14052;SDS011;7101;51.600;7.310;2022-11-15T12:32:05;2.75;;;1.10;;
14052;SDS011;7101;51.600;7.310;2022-11-15T12:34:45;1.83;;;0.90;;
14052;SDS011;7101;51.600;7.310;2022-11-15T12:40:25;1.38;;;0.75;;
14052;SDS011;7101;51.600;7.310;2022-11-15T12:43:02;1.63;;;0.80;;
14052;SDS011;7101;51.600;7.310;2022-11-15T12:45:39;4.43;;;0.90;;
14052;SDS011;7101;51.600;7.310;2022-11-15T12:51:15;5.07;;;1.10;;
14052;SDS011;7101;51.600;7.310;2022-11-15T12:53:43;1.60;;;0.90;;
14052;SDS011;7101;51.600;7.310;2022-11-15T12:56:20;1.20;;;0.90;;
14052;SDS011;7101;51.600;7.310;2022-11-15T12:58:50;2.25;;;0.80;;
14052;SDS011;7101;51.600;7.310;2022-11-15T13:04:29;3.17;;;1.40;;
14052;SDS011;7101;51.600;7.310;2022-11-15T13:06:58;2.33;;;1.10;;
14052;SDS011;7101;51.600;7.310;2022-11-15T13:15:33;1.95;;;1.00;;
14052;SDS011;7101;51.600;7.310;2022-11-15T13:21:00;2.50;;;1.10;;
14052;SDS011;7101;51.600;7.310;2022-11-15T13:23:51;2.60;;;1.00;;
14052;SDS011;7101;51.600;7.310;2022-11-15T13:26:19;6.38;;;1.20;;
14052;SDS011;7101;51.600;7.310;2022-11-15T13:28:48;2.20;;;1.10;;
14052;SDS011;7101;51.600;7.310;2022-11-15T13:37:07;4.55;;;1.00;;
14052;SDS011;7101;51.600;7.310;2022-11-15T13:39:39;2.15;;;1.00;;
14052;SDS011;7101;51.600;7.310;2022-11-15T13:42:13;3.10;;;1.10;;
14052;SDS011;7101;51.600;7.310;2022-11-15T13:44:41;2.22;;;1.08;;
14052;SDS011;7101;51.600;7.310;2022-11-15T13:47:21;3.17;;;1.20;;
14052;SDS011;7101;51.600;7.310;2022-11-15T13:49:53;1.67;;;1.00;;
14052;SDS011;7101;51.600;7.310;2022-11-15T13:52:24;2.30;;;1.00;;
14052;SDS011;7101;51.600;7.310;2022-11-15T13:54:58;2.70;;;1.05;;
14052;SDS011;7101;51.600;7.310;2022-11-15T13:57:29;3.60;;;1.15;;
14052;SDS011;7101;51.600;7.310;2022-11-15T14:00:05;1.30;;;0.90;;
14052;SDS011;7101;51.600;7.310;2022-11-15T14:02:53;1.90;;;0.90;;
14052;SDS011;7101;51.600;7.310;2022-11-15T14:05:22;2.72;;;1.35;;
14052;SDS011;7101;51.600;7.310;2022-11-15T14:08:03;1.90;;;1.00;;
14052;SDS011;7101;51.600;7.310;2022-11-15T14:10:40;3.33;;;1.00;;
14052;SDS011;7101;51.600;7.310;2022-11-15T14:13:10;1.58;;;1.02;;
14052;SDS011;7101;51.600;7.310;2022-11-15T14:15:53;3.38;;;1.48;;
14052;SDS011;7101;51.600;7.310;2022-11-15T14:21:07;4.47;;;1.63;;
14052;SDS011;7101;51.600;7.310;2022-11-15T14:23:37;3.38;;;1.10;;
14052;SDS011;7101;51.600;7.310;2022-11-15T14:26:11;5.07;;;1.20;;
14052;SDS011;7101;51.600;7.310;2022-11-15T14:28:53;5.03;;;1.40;;
14052;SDS011;7101;51.600;7.310;2022-11-15T14:31:20;4.05;;;1.60;;
14052;SDS011;7101;51.600;7.310;2022-11-15T14:33:48;2.75;;;1.33;;
14052;SDS011;7101;51.600;7.310;2022-11-15T14:36:16;3.80;;;1.70;;
14052;SDS011;7101;51.600;7.310;2022-11-15T14:38:46;3.75;;;1.20;;
14052;SDS011;7101;51.600;7.310;2022-11-15T14:41:17;3.10;;;1.25;;
14052;SDS011;7101;51.600;7.310;2022-11-15T14:43:46;4.03;;;1.50;;
14052;SDS011;7101;51.600;7.310;2022-11-15T14:46:15;3.53;;;1.30;;
14052;SDS011;7101;51.600;7.310;2022-11-15T14:48:45;3.15;;;1.38;;
14052;SDS011;7101;51.600;7.310;2022-11-15T14:51:12;5.13;;;1.60;;
14052;SDS011;7101;51.600;7.310;2022-11-15T14:53:40;13.55;;;2.22;;
14052;SDS011;7101;51.600;7.310;2022-11-15T14:56:10;5.63;;;2.15;;
14052;SDS011;7101;51.600;7.310;2022-11-15T14:58:37;3.97;;;1.40;;
14052;SDS011;7101;51.600;7.310;2022-11-15T15:01:09;4.05;;;1.60;;
14052;SDS011;7101;51.600;7.310;2022-11-15T15:03:39;8.50;;;1.38;;
14052;SDS011;7101;51.600;7.310;2022-11-15T15:06:06;4.47;;;1.75;;
14052;SDS011;7101;51.600;7.310;2022-11-15T15:08:34;3.28;;;1.70;;
14052;SDS011;7101;51.600;7.310;2022-11-15T15:11:01;3.67;;;1.50;;
14052;SDS011;7101;51.600;7.310;2022-11-15T15:13:36;2.90;;;1.50;;
14052;SDS011;7101;51.600;7.310;2022-11-15T15:16:04;6.30;;;1.70;;
14052;SDS011;7101;51.600;7.310;2022-11-15T15:18:32;4.18;;;1.83;;
14052;SDS011;7101;51.600;7.310;2022-11-15T15:21:02;3.67;;;1.73;;
14052;SDS011;7101;51.600;7.310;2022-11-15T15:23:40;4.63;;;1.92;;
14052;SDS011;7101;51.600;7.310;2022-11-15T15:26:07;3.67;;;1.73;;
14052;SDS011;7101;51.600;7.310;2022-11-15T15:28:34;2.95;;;1.80;;
14052;SDS011;7101;51.600;7.310;2022-11-15T15:31:04;5.65;;;1.88;;
14052;SDS011;7101;51.600;7.310;2022-11-15T15:33:32;6.03;;;2.20;;
14052;SDS011;7101;51.600;7.310;2022-11-15T15:35:59;7.75;;;2.58;;
14052;SDS011;7101;51.600;7.310;2022-11-15T15:38:28;7.43;;;2.80;;
14052;SDS011;7101;51.600;7.310;2022-11-15T15:40:56;4.93;;;2.63;;
14052;SDS011;7101;51.600;7.310;2022-11-15T15:43:24;5.32;;;3.15;;
14052;SDS011;7101;51.600;7.310;2022-11-15T15:45:52;5.72;;;2.70;;
14052;SDS011;7101;51.600;7.310;2022-11-15T15:48:21;5.45;;;3.13;;
14052;SDS011;7101;51.600;7.310;2022-11-15T15:50:48;6.93;;;2.95;;
14052;SDS011;7101;51.600;7.310;2022-11-15T15:53:15;5.20;;;2.38;;
14052;SDS011;7101;51.600;7.310;2022-11-15T15:55:42;5.13;;;2.72;;